Time;durP1;ratioP1;P1;durP2;ratioP2;P2;SDS_P1;SDS_P2;PMS_P1;PMS_P2;Temp;Humidity;BMP_temperature;BMP_pressure;BME280_temperature;BME280_humidity;BME280_pressure;Samples;Min_cycle;Max_cycle;Signal;HPM_P1;HPM_P2
2022/08/04 00:01:16;;;;;;;;;;;22.50;68.30;;;;;;6214956;23;808;-64
2022/08/04 00:04:01;;;;;;;;;;;22.50;68.30;;;;;;6214639;23;800;-64
2022/08/04 00:06:38;;;;;;;;;;;22.50;68.30;;;;;;6162789;23;1254;-64
2022/08/04 00:09:09;;;;;;;;;;;22.50;68.40;;;;;;6187950;23;1050;-64
2022/08/04 00:11:34;;;;;;;;;;;22.50;68.30;;;;;;6188025;23;1909;-63
2022/08/04 00:14:03;;;;;;;;;;;22.50;68.30;;;;;;6188026;23;776;-64
2022/08/04 00:16:31;;;;;;;;;;;22.50;68.30;;;;;;6214089;23;1281;-63
2022/08/04 00:18:58;;;;;;;;;;;22.50;68.30;;;;;;6214306;23;804;-64
2022/08/04 00:21:23;;;;;;;;;;;22.50;68.30;;;;;;6214725;23;745;-64
2022/08/04 00:23:49;;;;;;;;;;;22.50;68.30;;;;;;6187939;23;780;-64
2022/08/04 00:26:17;;;;;;;;;;;22.50;68.30;;;;;;6213918;23;1215;-64
2022/08/04 00:28:43;;;;;;;;;;;22.50;68.30;;;;;;6187966;23;821;-62
2022/08/04 00:31:08;;;;;;;;;;;22.50;68.30;;;;;;6214568;23;1901;-64
2022/08/04 00:33:34;;;;;;;;;;;22.50;68.30;;;;;;6214285;23;899;-63
2022/08/04 00:35:59;;;;;;;;;;;22.50;68.30;;;;;;6187283;23;1231;-64
2022/08/04 00:38:25;;;;;;;;;;;22.50;68.40;;;;;;6214463;23;931;-64
2022/08/04 00:40:59;;;;;;;;;;;22.50;68.30;;;;;;6187826;23;908;-62
2022/08/04 00:43:27;;;;;;;;;;;22.50;68.30;;;;;;6214650;23;785;-63
2022/08/04 00:46:04;;;;;;;;;;;22.50;68.30;;;;;;6213916;23;1194;-62
2022/08/04 00:48:36;;;;;;;;;;;22.50;68.30;;;;;;6188595;23;915;-62
2022/08/04 00:51:21;;;;;;;;;;;22.50;68.30;;;;;;6189771;23;1932;-63
2022/08/04 00:53:46;;;;;;;;;;;22.50;68.30;;;;;;6189553;23;835;-64
2022/08/04 00:56:21;;;;;;;;;;;22.40;68.30;;;;;;6215668;23;1698;-64
2022/08/04 00:59:05;;;;;;;;;;;22.50;68.30;;;;;;6215894;23;945;-64
2022/08/04 01:01:44;;;;;;;;;;;22.50;68.30;;;;;;6189600;23;853;-64
2022/08/04 01:04:14;;;;;;;;;;;22.40;68.30;;;;;;6189834;23;840;-63
2022/08/04 01:06:44;;;;;;;;;;;22.50;68.40;;;;;;6164088;23;1208;-64
2022/08/04 01:09:20;;;;;;;;;;;22.50;68.40;;;;;;6215568;23;855;-63
2022/08/04 01:11:54;;;;;;;;;;;22.50;68.40;;;;;;6216335;23;1928;-64
2022/08/04 01:14:38;;;;;;;;;;;22.50;68.30;;;;;;6216099;23;971;-64
2022/08/04 01:17:13;;;;;;;;;;;22.40;68.30;;;;;;6215548;23;1218;-64
2022/08/04 01:19:54;;;;;;;;;;;22.50;68.30;;;;;;6189312;23;927;-63
2022/08/04 01:22:22;;;;;;;;;;;22.50;68.30;;;;;;6216023;23;860;-63
2022/08/04 01:24:57;;;;;;;;;;;22.50;68.40;;;;;;6215815;23;852;-64
2022/08/04 01:27:47;;;;;;;;;;;22.50;68.30;;;;;;6215551;23;1250;-64
2022/08/04 01:30:12;;;;;;;;;;;22.50;68.30;;;;;;6160078;23;1873;-64
2022/08/04 01:32:39;;;;;;;;;;;22.50;68.40;;;;;;6214224;23;1018;-64
2022/08/04 01:35:17;;;;;;;;;;;22.50;68.40;;;;;;6215767;23;1073;-62
2022/08/04 01:37:59;;;;;;;;;;;22.50;68.30;;;;;;6215242;23;1143;-64
2022/08/04 01:40:25;;;;;;;;;;;22.50;68.30;;;;;;6188955;23;844;-64
2022/08/04 01:42:51;;;;;;;;;;;22.50;68.40;;;;;;6215748;23;836;-63
2022/08/04 01:45:16;;;;;;;;;;;22.50;68.40;;;;;;6215750;23;907;-63
2022/08/04 01:47:48;;;;;;;;;;;22.40;68.30;;;;;;6215186;23;1141;-64
2022/08/04 01:50:14;;;;;;;;;;;22.50;68.40;;;;;;6189026;23;1905;-62
2022/08/04 01:52:41;;;;;;;;;;;22.50;68.40;;;;;;6215564;23;784;-64
2022/08/04 01:55:08;;;;;;;;;;;22.50;68.40;;;;;;6215295;23;752;-64
2022/08/04 01:57:41;;;;;;;;;;;22.50;68.40;;;;;;6215246;23;1290;-62
2022/08/04 02:00:07;;;;;;;;;;;22.50;69.30;;;;;;6215002;23;812;-62
2022/08/04 02:02:32;;;;;;;;;;;22.50;68.40;;;;;;6216000;23;1035;-64
2022/08/04 02:04:58;;;;;;;;;;;22.50;68.40;;;;;;6215454;23;846;-64
2022/08/04 02:07:26;;;;;;;;;;;22.50;68.40;;;;;;6214823;23;1191;-64
2022/08/04 02:09:55;;;;;;;;;;;22.50;68.40;;;;;;6215249;23;1982;-64
2022/08/04 02:12:25;;;;;;;;;;;22.50;68.40;;;;;;6215895;23;831;-63
2022/08/04 02:14:55;;;;;;;;;;;22.50;68.40;;;;;;6215846;23;662;-64
2022/08/04 02:17:29;;;;;;;;;;;22.50;68.40;;;;;;6215341;23;1280;-63
2022/08/04 02:20:04;;;;;;;;;;;22.50;68.40;;;;;;6215078;23;782;-64
2022/08/04 02:22:29;;;;;;;;;;;22.50;68.40;;;;;;6188851;23;827;-64
2022/08/04 02:25:06;;;;;;;;;;;22.50;68.40;;;;;;6188976;23;864;-65
2022/08/04 02:27:33;;;;;;;;;;;22.50;68.40;;;;;;6214151;23;1149;-65
2022/08/04 02:29:59;;;;;;;;;;;22.50;68.40;;;;;;6188892;23;1893;-65
2022/08/04 02:32:26;;;;;;;;;;;22.50;68.40;;;;;;6215731;23;994;-64
2022/08/04 02:35:21;;;;;;;;;;;22.50;68.40;;;;;;6189407;23;813;-64
2022/08/04 02:37:46;;;;;;;;;;;22.50;68.40;;;;;;6189182;23;1350;-63
2022/08/04 02:40:12;;;;;;;;;;;22.50;68.40;;;;;;6189146;23;1027;-63
2022/08/04 02:42:37;;;;;;;;;;;22.50;68.40;;;;;;6189119;23;1003;-63
2022/08/04 02:45:03;;;;;;;;;;;22.50;68.40;;;;;;6215450;23;788;-65
2022/08/04 02:47:29;;;;;;;;;;;22.50;68.40;;;;;;6163896;23;1319;-65
2022/08/04 02:49:55;;;;;;;;;;;22.50;68.40;;;;;;6189155;23;1900;-65
2022/08/04 02:52:20;;;;;;;;;;;22.50;68.40;;;;;;6188913;23;931;-65
2022/08/04 02:54:46;;;;;;;;;;;22.50;68.40;;;;;;6189088;23;799;-63
2022/08/04 02:57:12;;;;;;;;;;;22.50;68.50;;;;;;6188394;23;1283;-65
2022/08/04 02:59:46;;;;;;;;;;;22.50;68.40;;;;;;6213801;23;1181;-65
2022/08/04 03:02:11;;;;;;;;;;;22.50;68.40;;;;;;6188852;23;556;-65
2022/08/04 03:05:13;;;;;;;;;;;22.50;68.40;;;;;;6188882;23;800;-65
2022/08/04 03:07:57;;;;;;;;;;;22.50;68.40;;;;;;6093562;23;1526;-64
2022/08/04 03:10:28;;;;;;;;;;;22.50;68.40;;;;;;6179616;23;1893;-65
2022/08/04 03:13:06;;;;;;;;;;;22.50;68.40;;;;;;6215272;23;983;-65
2022/08/04 03:15:53;;;;;;;;;;;22.50;68.40;;;;;;6214869;23;1192;-67
2022/08/04 03:18:38;;;;;;;;;;;22.50;68.50;;;;;;6188656;23;848;-66
2022/08/04 03:21:06;;;;;;;;;;;22.40;68.40;;;;;;6215164;23;844;-66
2022/08/04 03:23:49;;;;;;;;;;;22.50;68.50;;;;;;6215534;23;792;-66
2022/08/04 03:26:15;;;;;;;;;;;22.50;68.40;;;;;;6214616;23;1320;-66
2022/08/04 03:28:50;;;;;;;;;;;22.50;68.50;;;;;;6215043;23;879;-66
2022/08/04 03:31:34;;;;;;;;;;;22.50;68.50;;;;;;6188662;23;1936;-67
2022/08/04 03:34:09;;;;;;;;;;;22.50;68.50;;;;;;6215231;23;856;-66
2022/08/04 03:36:37;;;;;;;;;;;22.40;68.40;;;;;;6214695;23;1204;-66
2022/08/04 03:39:14;;;;;;;;;;;22.50;68.40;;;;;;6188302;23;867;-66
2022/08/04 03:41:58;;;;;;;;;;;22.50;68.50;;;;;;6188906;23;832;-66
2022/08/04 03:44:38;;;;;;;;;;;22.50;68.50;;;;;;6215529;23;801;-67
2022/08/04 03:47:19;;;;;;;;;;;22.50;68.50;;;;;;6187811;23;1200;-66
2022/08/04 03:49:50;;;;;;;;;;;22.50;68.50;;;;;;6188639;23;1897;-67
2022/08/04 03:55:12;;;;;;;;;;;22.40;68.40;;;;;;6214952;23;654;-62
2022/08/04 03:57:47;;;;;;;;;;;22.50;68.50;;;;;;6214222;23;1243;-62
2022/08/04 04:00:13;;;;;;;;;;;22.50;68.50;;;;;;6215036;23;800;-63
2022/08/04 04:02:56;;;;;;;;;;;22.50;68.50;;;;;;6215163;23;770;-65
2022/08/04 04:05:22;;;;;;;;;;;22.50;68.50;;;;;;6214975;23;990;-65
2022/08/04 04:07:53;;;;;;;;;;;22.50;68.50;;;;;;6214563;23;1214;-65
2022/08/04 04:10:37;;;;;;;;;;;22.50;68.50;;;;;;6188099;23;1869;-64
2022/08/04 04:13:03;;;;;;;;;;;22.50;68.50;;;;;;6214773;23;797;-64
2022/08/04 04:15:38;;;;;;;;;;;22.50;68.50;;;;;;6214730;23;1203;-63
2022/08/04 04:18:15;;;;;;;;;;;22.50;68.50;;;;;;6183607;23;1010;-63
2022/08/04 04:20:50;;;;;;;;;;;22.50;68.50;;;;;;6214471;23;828;-63
2022/08/04 04:23:30;;;;;;;;;;;22.50;68.50;;;;;;6215129;23;796;-63
2022/08/04 04:26:02;;;;;;;;;;;22.50;68.50;;;;;;6189569;23;1329;-63
2022/08/04 04:28:33;;;;;;;;;;;22.50;68.50;;;;;;6216968;23;967;-63
2022/08/04 04:31:07;;;;;;;;;;;22.50;68.50;;;;;;6216744;23;1932;-63
2022/08/04 04:33:37;;;;;;;;;;;22.50;68.50;;;;;;6190101;23;808;-62
2022/08/04 04:36:09;;;;;;;;;;;22.50;68.50;;;;;;6190029;23;1282;-63
2022/08/04 04:38:34;;;;;;;;;;;22.50;68.50;;;;;;6216769;23;922;-62
2022/08/04 04:41:19;;;;;;;;;;;22.50;68.50;;;;;;6217007;23;776;-65
2022/08/04 04:43:53;;;;;;;;;;;22.50;69.20;;;;;;6216246;23;942;-65
2022/08/04 04:46:27;;;;;;;;;;;22.50;68.50;;;;;;6216346;23;1599;-65
2022/08/04 04:49:04;;;;;;;;;;;22.50;68.50;;;;;;6216381;23;908;-64
2022/08/04 04:51:38;;;;;;;;;;;22.50;68.60;;;;;;6190284;23;1905;-64
2022/08/04 04:54:10;;;;;;;;;;;22.50;68.60;;;;;;6216729;23;990;-65
2022/08/04 04:56:46;;;;;;;;;;;22.50;68.50;;;;;;6216451;23;1277;-67
2022/08/04 04:59:15;;;;;;;;;;;22.50;68.60;;;;;;6190096;23;832;-65
2022/08/04 05:02:00;;;;;;;;;;;22.50;68.50;;;;;;6165082;23;959;-66
2022/08/04 05:04:36;;;;;;;;;;;22.50;68.50;;;;;;6216178;23;812;-67
2022/08/04 05:07:37;;;;;;;;;;;22.50;68.50;;;;;;6189695;23;1196;-67
2022/08/04 05:10:21;;;;;;;;;;;22.50;68.60;;;;;;6094814;23;1916;-67
2022/08/04 05:13:02;;;;;;;;;;;22.50;68.50;;;;;;6206317;23;1012;-68
2022/08/04 05:15:29;;;;;;;;;;;22.50;68.60;;;;;;6190114;23;1343;-67
2022/08/04 05:17:54;;;;;;;;;;;22.50;68.50;;;;;;6214412;23;820;-67
2022/08/04 05:20:20;;;;;;;;;;;22.50;68.50;;;;;;6190100;23;812;-68
2022/08/04 05:22:52;;;;;;;;;;;22.50;68.60;;;;;;6216479;23;978;-66
2022/08/04 05:25:20;;;;;;;;;;;22.50;68.60;;;;;;6188997;23;813;-66
2022/08/04 05:27:49;;;;;;;;;;;22.50;68.60;;;;;;6188303;23;1287;-66
2022/08/04 05:30:14;;;;;;;;;;;22.50;68.60;;;;;;6188072;23;1885;-66
2022/08/04 05:32:42;;;;;;;;;;;22.50;68.60;;;;;;6188820;23;777;-66
2022/08/04 05:35:08;;;;;;;;;;;22.50;68.60;;;;;;6188663;23;773;-66
2022/08/04 05:37:34;;;;;;;;;;;22.50;68.60;;;;;;6216189;23;1260;-67
2022/08/04 05:40:02;;;;;;;;;;;22.50;68.60;;;;;;6164761;23;1196;-66
2022/08/04 05:42:28;;;;;;;;;;;22.50;68.60;;;;;;6216234;23;828;-66
2022/08/04 05:44:54;;;;;;;;;;;22.50;68.50;;;;;;6189340;23;1022;-66
2022/08/04 05:47:20;;;;;;;;;;;22.50;68.60;;;;;;6188783;23;1207;-66
2022/08/04 05:49:46;;;;;;;;;;;22.50;68.60;;;;;;6189819;23;1893;-66
2022/08/04 05:52:11;;;;;;;;;;;22.50;68.60;;;;;;6164479;23;1380;-65
2022/08/04 05:54:37;;;;;;;;;;;22.50;68.60;;;;;;6189383;23;1223;-66
2022/08/04 05:57:06;;;;;;;;;;;22.50;68.50;;;;;;6188416;23;1129;-67
2022/08/04 05:59:31;;;;;;;;;;;22.50;68.60;;;;;;6189566;23;808;-66
2022/08/04 06:01:57;;;;;;;;;;;22.50;68.60;;;;;;6215934;23;1033;-67
2022/08/04 06:04:24;;;;;;;;;;;22.50;68.60;;;;;;6189663;23;1318;-67
2022/08/04 06:06:49;;;;;;;;;;;22.50;68.60;;;;;;6188808;23;1219;-66
2022/08/04 06:09:15;;;;;;;;;;;22.50;68.60;;;;;;6189479;23;978;-65
2022/08/04 06:11:40;;;;;;;;;;;22.50;68.60;;;;;;6215962;23;1928;-66
2022/08/04 06:14:06;;;;;;;;;;;22.50;68.60;;;;;;6189625;23;844;-67
2022/08/04 06:16:39;;;;;;;;;;;22.50;68.60;;;;;;6163950;23;1226;-67
2022/08/04 06:19:08;;;;;;;;;;;22.50;68.60;;;;;;6189554;23;820;-66
2022/08/04 06:21:33;;;;;;;;;;;22.50;68.60;;;;;;6189124;23;844;-66
2022/08/04 06:23:59;;;;;;;;;;;22.50;68.60;;;;;;6216067;23;776;-66
2022/08/04 06:26:24;;;;;;;;;;;22.50;69.30;;;;;;6188803;23;1281;-65
2022/08/04 06:28:50;;;;;;;;;;;22.50;68.60;;;;;;6189331;23;819;-66
2022/08/04 06:31:20;;;;;;;;;;;22.50;68.60;;;;;;6189080;23;1942;-67
2022/08/04 06:33:47;;;;;;;;;;;22.50;68.60;;;;;;6189670;23;843;-67
2022/08/04 06:36:12;;;;;;;;;;;22.50;68.60;;;;;;6188147;23;1289;-66
2022/08/04 06:38:38;;;;;;;;;;;22.50;68.60;;;;;;6188643;23;840;-67
2022/08/04 06:41:08;;;;;;;;;;;22.50;68.60;;;;;;6164125;23;1432;-68
2022/08/04 06:43:33;;;;;;;;;;;22.50;68.60;;;;;;6190214;23;832;-66
2022/08/04 06:46:01;;;;;;;;;;;22.50;68.60;;;;;;6163610;23;1198;-66
2022/08/04 06:48:26;;;;;;;;;;;22.50;68.60;;;;;;6188788;23;812;-65
2022/08/04 06:50:51;;;;;;;;;;;22.50;68.60;;;;;;6189137;23;1940;-66
2022/08/04 06:53:17;;;;;;;;;;;22.50;68.60;;;;;;6188950;23;788;-66
2022/08/04 06:55:44;;;;;;;;;;;22.50;68.60;;;;;;6215029;23;1611;-65
2022/08/04 06:58:10;;;;;;;;;;;22.50;68.60;;;;;;6189047;23;935;-66
2022/08/04 07:00:35;;;;;;;;;;;22.50;68.60;;;;;;6189068;23;812;-67
2022/08/04 07:03:01;;;;;;;;;;;22.50;68.60;;;;;;6188897;23;780;-65
2022/08/04 07:05:26;;;;;;;;;;;22.50;68.60;;;;;;6188638;23;1289;-66
2022/08/04 07:07:52;;;;;;;;;;;22.50;68.60;;;;;;6188707;23;1269;-65
2022/08/04 07:10:17;;;;;;;;;;;22.50;68.60;;;;;;6188972;23;1930;-64
2022/08/04 07:12:43;;;;;;;;;;;22.50;68.60;;;;;;6215212;23;1044;-63
2022/08/04 07:15:09;;;;;;;;;;;22.50;68.60;;;;;;6215432;23;828;-65
2022/08/04 07:17:34;;;;;;;;;;;22.50;68.60;;;;;;6188181;23;1202;-64
2022/08/04 07:20:00;;;;;;;;;;;22.50;68.60;;;;;;6215600;23;784;-66
2022/08/04 07:22:26;;;;;;;;;;;22.50;68.60;;;;;;6188818;23;923;-66
2022/08/04 07:24:55;;;;;;;;;;;22.50;68.60;;;;;;6215320;23;736;-66
2022/08/04 07:27:20;;;;;;;;;;;22.50;68.60;;;;;;6214506;23;1191;-66
2022/08/04 07:29:46;;;;;;;;;;;22.50;68.60;;;;;;6188628;23;1934;-65
2022/08/04 07:32:12;;;;;;;;;;;22.50;68.60;;;;;;6188636;23;1006;-67
2022/08/04 07:34:38;;;;;;;;;;;22.50;69.30;;;;;;6188732;23;828;-65
2022/08/04 07:37:03;;;;;;;;;;;22.50;68.60;;;;;;6188150;23;1217;-65
2022/08/04 07:39:30;;;;;;;;;;;22.50;68.60;;;;;;6215573;23;812;-66
2022/08/04 07:41:57;;;;;;;;;;;22.50;68.60;;;;;;6189110;23;900;-65
2022/08/04 07:44:24;;;;;;;;;;;22.50;68.60;;;;;;6188824;23;843;-66
2022/08/04 07:46:49;;;;;;;;;;;22.50;68.60;;;;;;6188322;23;1293;-65
2022/08/04 07:49:14;;;;;;;;;;;22.50;68.60;;;;;;6188687;23;817;-64
2022/08/04 07:51:40;;;;;;;;;;;22.50;68.50;;;;;;6188640;23;1909;-66
2022/08/04 07:54:07;;;;;;;;;;;22.50;68.60;;;;;;6215096;23;816;-66
2022/08/04 07:56:34;;;;;;;;;;;22.50;68.60;;;;;;6188507;23;1228;-65
2022/08/04 07:58:59;;;;;;;;;;;22.50;68.60;;;;;;6216293;23;932;-65
2022/08/04 08:01:25;;;;;;;;;;;22.50;68.60;;;;;;6217249;23;886;-64
2022/08/04 08:03:51;;;;;;;;;;;22.50;68.50;;;;;;6190859;23;965;-64
2022/08/04 08:06:17;;;;;;;;;;;22.50;68.60;;;;;;6190219;23;1219;-64
2022/08/04 08:08:42;;;;;;;;;;;22.50;68.60;;;;;;6217196;23;884;-66
2022/08/04 08:11:08;;;;;;;;;;;22.50;68.50;;;;;;6217064;23;1918;-64
2022/08/04 08:13:33;;;;;;;;;;;22.50;68.70;;;;;;6190593;23;824;-65
2022/08/04 08:15:59;;;;;;;;;;;22.50;68.70;;;;;;6216583;23;1269;-65
2022/08/04 08:18:24;;;;;;;;;;;22.50;68.80;;;;;;6190330;23;828;-66
2022/08/04 08:20:51;;;;;;;;;;;22.50;69.30;;;;;;6217010;23;788;-66
2022/08/04 08:23:17;;;;;;;;;;;22.50;69.10;;;;;;6217135;23;827;-66
2022/08/04 08:25:42;;;;;;;;;;;22.50;69.20;;;;;;6216688;23;1260;-66
2022/08/04 08:28:08;;;;;;;;;;;22.50;69.20;;;;;;6190351;23;797;-66
2022/08/04 08:30:33;;;;;;;;;;;22.50;69.00;;;;;;6216761;23;1920;-66
2022/08/04 08:32:59;;;;;;;;;;;22.50;69.80;;;;;;6216879;23;1037;-67
2022/08/04 08:35:25;;;;;;;;;;;22.50;69.00;;;;;;6190161;23;1277;-65
2022/08/04 08:37:55;;;;;;;;;;;22.50;69.00;;;;;;6189880;23;1026;-65
2022/08/04 08:40:34;;;;;;;;;;;22.50;68.90;;;;;;6190465;23;815;-64
2022/08/04 08:43:15;;;;;;;;;;;22.50;69.00;;;;;;6190247;23;832;-65
2022/08/04 08:45:50;;;;;;;;;;;22.50;68.80;;;;;;6189971;23;1281;-65
2022/08/04 08:48:35;;;;;;;;;;;22.50;68.90;;;;;;6216990;23;852;-65
2022/08/04 08:51:13;;;;;;;;;;;22.50;68.80;;;;;;6216712;23;1924;-65
2022/08/04 08:53:44;;;;;;;;;;;22.50;70.00;;;;;;6190400;23;835;-63
2022/08/04 08:56:17;;;;;;;;;;;22.50;70.20;;;;;;6189611;23;1191;-65
2022/08/04 08:58:51;;;;;;;;;;;22.50;70.10;;;;;;6216871;23;820;-66
2022/08/04 09:01:35;;;;;;;;;;;22.50;69.60;;;;;;6216712;23;852;-66
2022/08/04 09:04:19;;;;;;;;;;;22.50;69.20;;;;;;6216434;23;982;-64
2022/08/04 09:06:46;;;;;;;;;;;22.50;69.30;;;;;;6215694;23;1263;-65
2022/08/04 09:09:18;;;;;;;;;;;22.50;69.20;;;;;;6189792;23;880;-65
2022/08/04 09:12:02;;;;;;;;;;;22.50;69.30;;;;;;6213645;23;1926;-63
2022/08/04 09:14:28;;;;;;;;;;;22.50;69.40;;;;;;6214872;23;856;-63
2022/08/04 09:16:55;;;;;;;;;;;22.50;69.40;;;;;;6189274;23;1282;-64
2022/08/04 09:19:26;;;;;;;;;;;22.50;69.20;;;;;;6189306;23;797;-64
2022/08/04 09:22:07;;;;;;;;;;;22.50;69.30;;;;;;6188792;23;828;-64
2022/08/04 09:24:44;;;;;;;;;;;22.60;69.40;;;;;;6214769;23;911;-63
2022/08/04 09:27:20;;;;;;;;;;;22.50;69.20;;;;;;6214576;23;1198;-63
2022/08/04 09:29:48;;;;;;;;;;;22.50;69.20;;;;;;6188872;23;1932;-64
2022/08/04 09:32:23;;;;;;;;;;;22.50;69.50;;;;;;6215213;23;883;-64
2022/08/04 09:35:06;;;;;;;;;;;22.50;69.80;;;;;;6215372;23;919;-64
2022/08/04 09:37:32;;;;;;;;;;;22.50;70.00;;;;;;6214617;23;1176;-65
2022/08/04 09:40:03;;;;;;;;;;;22.60;69.90;;;;;;6215391;23;970;-65
2022/08/04 09:42:34;;;;;;;;;;;22.50;69.60;;;;;;6188658;23;922;-64
2022/08/04 09:45:08;;;;;;;;;;;22.60;69.70;;;;;;6189029;23;805;-63
2022/08/04 09:47:34;;;;;;;;;;;22.60;69.50;;;;;;6214629;23;1179;-64
2022/08/04 09:50:03;;;;;;;;;;;22.60;69.70;;;;;;6188570;23;1897;-65
2022/08/04 09:52:37;;;;;;;;;;;22.50;69.80;;;;;;6188679;23;896;-64
2022/08/04 09:55:21;;;;;;;;;;;22.60;69.50;;;;;;6188708;23;1023;-64
2022/08/04 09:58:08;;;;;;;;;;;22.60;69.50;;;;;;6214382;23;1297;-64
2022/08/04 10:00:33;;;;;;;;;;;22.60;69.40;;;;;;6188895;23;820;-65
2022/08/04 10:03:03;;;;;;;;;;;22.60;69.40;;;;;;6188965;23;1034;-64
2022/08/04 10:05:48;;;;;;;;;;;22.60;69.40;;;;;;6189622;23;1274;-64
2022/08/04 10:08:17;;;;;;;;;;;22.60;69.40;;;;;;6189778;23;1008;-65
2022/08/04 10:10:49;;;;;;;;;;;22.60;69.40;;;;;;6189104;23;1897;-65
2022/08/04 10:13:31;;;;;;;;;;;22.60;69.30;;;;;;6189081;23;1073;-64
2022/08/04 10:16:10;;;;;;;;;;;22.60;69.30;;;;;;6189314;23;1277;-64
2022/08/04 10:18:59;;;;;;;;;;;22.60;69.30;;;;;;6189358;23;1671;-64
2022/08/04 10:21:25;;;;;;;;;;;22.60;69.30;;;;;;6158596;23;1180;-64
2022/08/04 10:24:00;;;;;;;;;;;22.60;69.30;;;;;;6215369;23;796;-63
2022/08/04 10:26:31;;;;;;;;;;;22.60;69.30;;;;;;6188359;23;1227;-64
2022/08/04 10:29:00;;;;;;;;;;;22.60;69.30;;;;;;6215103;23;832;-64
2022/08/04 10:31:27;;;;;;;;;;;22.60;69.40;;;;;;6164127;23;1893;-64
2022/08/04 10:34:11;;;;;;;;;;;22.50;69.20;;;;;;6188871;23;990;-65
2022/08/04 10:36:43;;;;;;;;;;;22.60;69.30;;;;;;6188328;23;1325;-64
2022/08/04 10:39:12;;;;;;;;;;;22.60;69.30;;;;;;6189104;23;812;-64
2022/08/04 10:41:55;;;;;;;;;;;22.60;69.30;;;;;;6215404;23;839;-64
2022/08/04 10:44:23;;;;;;;;;;;22.60;69.20;;;;;;6188742;23;1010;-64
2022/08/04 10:46:50;;;;;;;;;;;22.60;69.20;;;;;;6214652;23;1202;-64
2022/08/04 10:49:20;;;;;;;;;;;22.60;69.20;;;;;;6188872;23;1019;-64
2022/08/04 10:51:53;;;;;;;;;;;22.60;69.20;;;;;;6215134;23;1901;-64
2022/08/04 10:54:30;;;;;;;;;;;22.60;69.20;;;;;;6215215;23;1014;-64
2022/08/04 10:56:58;;;;;;;;;;;22.60;69.20;;;;;;6214488;23;1262;-64
2022/08/04 10:59:25;;;;;;;;;;;22.60;69.20;;;;;;6188861;23;887;-65
2022/08/04 11:01:51;;;;;;;;;;;22.60;69.20;;;;;;6188476;23;954;-64
2022/08/04 11:04:19;;;;;;;;;;;22.60;69.20;;;;;;6215138;23;923;-65
2022/08/04 11:06:45;;;;;;;;;;;22.60;69.20;;;;;;6214236;23;1207;-64
2022/08/04 11:09:10;;;;;;;;;;;22.60;69.20;;;;;;6188516;23;836;-64
2022/08/04 11:11:44;;;;;;;;;;;22.60;69.10;;;;;;6188267;23;1932;-65
2022/08/04 11:14:12;;;;;;;;;;;22.60;69.30;;;;;;6188711;23;841;-65
2022/08/04 11:17:02;;;;;;;;;;;22.60;69.70;;;;;;6215045;23;1277;-63
2022/08/04 11:19:28;;;;;;;;;;;22.60;70.20;;;;;;6188531;23;892;-63
2022/08/04 11:22:02;;;;;;;;;;;22.60;70.30;;;;;;6214916;23;892;-62
2022/08/04 11:24:47;;;;;;;;;;;22.60;70.30;;;;;;6188965;23;773;-62
2022/08/04 11:27:18;;;;;;;;;;;22.60;70.30;;;;;;6214230;23;1289;-62
2022/08/04 11:30:04;;;;;;;;;;;22.60;70.30;;;;;;6215073;23;1893;-63
2022/08/04 11:32:31;;;;;;;;;;;22.60;70.20;;;;;;6213796;23;1142;-62
2022/08/04 11:35:01;;;;;;;;;;;22.60;70.20;;;;;;6188101;23;922;-62
2022/08/04 11:38:01;;;;;;;;;;;22.60;70.20;;;;;;6187750;23;1189;-63
2022/08/04 11:40:36;;;;;;;;;;;22.60;70.10;;;;;;6192747;23;1439;-63
2022/08/04 11:43:03;;;;;;;;;;;22.60;70.10;;;;;;6188114;23;816;-63
2022/08/04 11:45:37;;;;;;;;;;;22.60;70.10;;;;;;6187806;23;1308;-63
2022/08/04 11:48:03;;;;;;;;;;;22.60;70.10;;;;;;6188316;23;832;-64
2022/08/04 11:50:33;;;;;;;;;;;22.60;70.00;;;;;;6188246;23;1901;-63
2022/08/04 11:52:59;;;;;;;;;;;22.60;70.00;;;;;;6188184;23;1209;-63
2022/08/04 11:55:25;;;;;;;;;;;22.60;70.00;;;;;;6215011;23;1042;-62
2022/08/04 11:57:50;;;;;;;;;;;22.60;70.00;;;;;;6214661;23;1179;-63
2022/08/04 12:00:16;;;;;;;;;;;22.60;69.90;;;;;;6215100;23;927;-64
2022/08/04 12:03:00;;;;;;;;;;;22.60;70.00;;;;;;6188622;23;839;-62
2022/08/04 12:05:27;;;;;;;;;;;22.60;69.90;;;;;;6214094;23;1278;-62
2022/08/04 12:08:11;;;;;;;;;;;22.60;70.00;;;;;;6188413;23;829;-62
2022/08/04 12:10:37;;;;;;;;;;;22.60;69.80;;;;;;6214830;23;1901;-63
2022/08/04 12:13:14;;;;;;;;;;;22.60;69.80;;;;;;6212421;23;851;-63
2022/08/04 12:15:49;;;;;;;;;;;22.60;69.80;;;;;;6187578;23;1294;-63
2022/08/04 12:18:18;;;;;;;;;;;22.60;69.80;;;;;;6214554;23;800;-63
2022/08/04 12:20:44;;;;;;;;;;;22.60;69.70;;;;;;6215144;23;860;-64
2022/08/04 12:23:19;;;;;;;;;;;22.60;69.70;;;;;;6188611;23;991;-63
2022/08/04 12:25:45;;;;;;;;;;;22.60;69.70;;;;;;6186195;23;1312;-63
2022/08/04 12:28:11;;;;;;;;;;;22.60;69.70;;;;;;6213287;23;1014;-64
2022/08/04 12:30:39;;;;;;;;;;;22.60;69.70;;;;;;6188529;23;1893;-62
2022/08/04 12:33:06;;;;;;;;;;;22.60;69.60;;;;;;6188202;23;966;-62
2022/08/04 12:35:55;;;;;;;;;;;22.60;69.70;;;;;;6188072;23;1226;-63
2022/08/04 12:38:20;;;;;;;;;;;22.60;69.60;;;;;;6198941;23;1288;-63
2022/08/04 12:40:47;;;;;;;;;;;22.60;69.70;;;;;;6187208;23;860;-63
2022/08/04 12:43:18;;;;;;;;;;;22.60;69.60;;;;;;6214341;23;859;-63
2022/08/04 12:45:43;;;;;;;;;;;22.60;69.60;;;;;;6189729;23;1273;-62
2022/08/04 12:48:09;;;;;;;;;;;22.60;69.60;;;;;;6216688;23;836;-63
2022/08/04 12:50:35;;;;;;;;;;;22.60;69.60;;;;;;6190202;23;1897;-62
2022/08/04 12:53:00;;;;;;;;;;;22.60;69.70;;;;;;6189858;23;873;-63
2022/08/04 12:55:27;;;;;;;;;;;22.60;69.70;;;;;;6189719;23;1611;-64
2022/08/04 12:57:53;;;;;;;;;;;22.60;69.60;;;;;;6216319;23;895;-68
2022/08/04 13:00:26;;;;;;;;;;;22.60;69.60;;;;;;6190342;23;804;-68
2022/08/04 13:02:51;;;;;;;;;;;22.60;69.70;;;;;;6190102;23;808;-68
2022/08/04 13:05:17;;;;;;;;;;;22.60;69.70;;;;;;6189873;23;1042;-68
2022/08/04 13:07:49;;;;;;;;;;;22.60;69.60;;;;;;6189562;23;1249;-65
2022/08/04 13:10:15;;;;;;;;;;;22.60;69.60;;;;;;6216363;23;1893;-67
2022/08/04 13:12:41;;;;;;;;;;;22.60;69.60;;;;;;6189933;23;870;-67
2022/08/04 13:15:09;;;;;;;;;;;22.60;69.60;;;;;;6190091;23;812;-66
2022/08/04 13:18:07;;;;;;;;;;;22.60;69.60;;;;;;6216408;23;1265;-66
2022/08/04 13:20:33;;;;;;;;;;;22.60;69.60;;;;;;6124875;23;1308;-67
2022/08/04 13:23:02;;;;;;;;;;;22.60;69.60;;;;;;6216400;23;843;-66
2022/08/04 13:25:28;;;;;;;;;;;22.60;69.60;;;;;;6189435;23;1194;-66
2022/08/04 13:27:54;;;;;;;;;;;22.60;69.50;;;;;;6190092;23;774;-67
2022/08/04 13:30:19;;;;;;;;;;;22.60;69.60;;;;;;6189549;23;1923;-67
2022/08/04 13:32:45;;;;;;;;;;;22.60;69.60;;;;;;6189649;23;833;-67
2022/08/04 13:35:10;;;;;;;;;;;22.60;69.60;;;;;;6189679;23;813;-66
2022/08/04 13:37:36;;;;;;;;;;;22.60;69.60;;;;;;6215543;23;1153;-67
2022/08/04 13:40:05;;;;;;;;;;;22.60;69.60;;;;;;6189845;23;829;-66
2022/08/04 13:42:32;;;;;;;;;;;22.60;69.50;;;;;;6189575;23;873;-66
2022/08/04 13:44:58;;;;;;;;;;;22.60;69.60;;;;;;6216187;23;753;-66
2022/08/04 13:47:26;;;;;;;;;;;22.70;69.60;;;;;;6188918;23;1223;-67
2022/08/04 13:50:05;;;;;;;;;;;22.60;69.50;;;;;;6189870;23;2215;-66
2022/08/04 13:52:30;;;;;;;;;;;22.60;69.50;;;;;;6189368;23;938;-66
2022/08/04 13:54:56;;;;;;;;;;;22.60;69.50;;;;;;6189507;23;1596;-66
2022/08/04 13:57:22;;;;;;;;;;;22.60;69.60;;;;;;6188686;23;1275;-66
2022/08/04 13:59:48;;;;;;;;;;;22.60;69.50;;;;;;6216071;23;1057;-67
2022/08/04 14:02:21;;;;;;;;;;;22.70;69.60;;;;;;6189420;23;785;-66
2022/08/04 14:04:48;;;;;;;;;;;22.70;69.60;;;;;;6189620;23;902;-66
2022/08/04 14:07:14;;;;;;;;;;;22.70;69.70;;;;;;6188989;23;1198;-67
2022/08/04 14:09:40;;;;;;;;;;;22.60;69.90;;;;;;6216027;23;903;-67
2022/08/04 14:12:06;;;;;;;;;;;22.70;70.20;;;;;;6189021;23;1885;-68
2022/08/04 14:14:32;;;;;;;;;;;22.70;69.80;;;;;;6188810;23;942;-67
2022/08/04 14:17:08;;;;;;;;;;;22.60;70.30;;;;;;6188696;23;1195;-68
2022/08/04 14:19:49;;;;;;;;;;;22.70;70.40;;;;;;6215673;23;820;-69
2022/08/04 14:22:26;;;;;;;;;;;22.70;70.20;;;;;;6216011;23;832;-67
2022/08/04 14:25:05;;;;;;;;;;;22.70;70.60;;;;;;6215489;23;831;-67
2022/08/04 14:27:50;;;;;;;;;;;22.70;70.90;;;;;;6188828;23;1286;-67
2022/08/04 14:30:30;;;;;;;;;;;22.70;71.00;;;;;;6215608;23;1928;-66
2022/08/04 14:33:01;;;;;;;;;;;22.70;71.00;;;;;;6215807;23;813;-67
2022/08/04 14:35:27;;;;;;;;;;;22.70;70.90;;;;;;6215354;23;1194;-66
2022/08/04 14:37:53;;;;;;;;;;;22.70;70.80;;;;;;6215847;23;890;-66
2022/08/04 14:40:28;;;;;;;;;;;22.70;70.90;;;;;;6188937;23;704;-67
2022/08/04 14:42:54;;;;;;;;;;;22.70;70.60;;;;;;6189153;23;808;-67
2022/08/04 14:45:26;;;;;;;;;;;22.70;70.50;;;;;;6189047;23;872;-67
2022/08/04 14:47:51;;;;;;;;;;;22.70;70.40;;;;;;6215277;23;1132;-67
2022/08/04 14:50:17;;;;;;;;;;;22.70;70.30;;;;;;6215484;23;1930;-67
2022/08/04 14:52:42;;;;;;;;;;;22.70;70.30;;;;;;6215866;23;864;-68
2022/08/04 14:55:22;;;;;;;;;;;22.70;70.20;;;;;;6215222;23;839;-68
2022/08/04 14:57:47;;;;;;;;;;;22.70;70.10;;;;;;6188650;23;1298;-67
2022/08/04 15:00:22;;;;;;;;;;;22.70;70.10;;;;;;6215351;23;884;-68